Skip Navigation LinksHome page > Weather > Current weather Skip Navigation Links

Current Weather

Heathrow, London

For information only: do not use for flight planning or navigation.
Latest weather
Observation time Tuesday, October 25, 2016 7:50 PM BST
Local time Tuesday, October 25, 2016 8:01 PM BST
Flight conditions Marginal Visual Meteorological Conditions
Wind direction East-Northeast (70°)
Wind speed 2 mph
Visibility 3.1 mi.
Present weather haze
Sky condition
Ceiling 2,700 ft. broken clouds
Cloud layer few clouds 1,600 ft.
Cloud layer broken clouds 2,700 ft.
Temperature 54°F
Dewpoint 50°F
Altimeter 30.27 in.Hg
Derived measurements
Relative humidity 88%
Density altitude -580 ft.
Corrected report.
Fully automated report.
No significant changes expected in the next two hours.
METAR COR EGLL 251850Z AUTO 07002KT 5000 HZ FEW016 BKN027 12/10 Q1025 NOSIG


Location code

InnerDrive.Weather 4.0.5722.1 Release CLR 4.0.30319.34209
Copyright ©2015 Inner Drive Technology. All rights reserved. Portions Copyright ©1986-2015 David Braverman.

Find weather

Site navigation

Skip Navigation Links

Place info

Page info

PayPal - The safer, easier way to pay online!

Return home.

Copyright ©2016 Inner Drive Technology. Purveyors of fine, hand-crafted computer software. Page printed 2016-10-25T19:01:49 UTC.